Time;durP1;ratioP1;P1;durP2;ratioP2;P2;SDS_P1;SDS_P2;PMS_P1;PMS_P2;Temp;Humidity;BMP_temperature;BMP_pressure;BME280_temperature;BME280_humidity;BME280_pressure;Samples;Min_cycle;Max_cycle;Signal;HPM_P1;HPM_P2
2022/09/18 00:01:26;;;;;;;4.05;1.58;;;;;;;12.76;81.98;101416.72;3589813;39;20059;-64
2022/09/18 00:03:57;;;;;;;5.50;1.80;;;;;;;12.68;82.27;101410.91;3591324;39;20330;-64
2022/09/18 00:06:29;;;;;;;6.28;1.95;;;;;;;12.70;82.75;101414.41;3589432;39;20059;-64
2022/09/18 00:08:58;;;;;;;4.70;1.70;;;;;;;12.71;83.20;101410.75;3587107;39;21367;-65
2022/09/18 00:11:28;;;;;;;6.05;2.25;;;;;;;12.71;83.12;101416.13;3589937;39;20073;-67
2022/09/18 00:13:54;;;;;;;6.43;2.58;;;;;;;12.67;82.97;101422.69;3587720;39;20217;-65
2022/09/18 00:16:23;;;;;;;6.00;2.38;;;;;;;12.65;83.28;101421.91;3589278;39;20128;-64
2022/09/18 00:18:49;;;;;;;5.00;2.45;;;;;;;12.64;83.88;101409.38;3587486;39;20067;-65
2022/09/18 00:21:23;;;;;;;6.45;2.35;;;;;;;12.64;83.67;101408.53;3590168;39;20078;-65
2022/09/18 00:23:51;;;;;;;5.72;2.13;;;;;;;12.46;84.03;101383.53;3588160;39;20067;-66
2022/09/18 00:26:17;;;;;;;7.45;2.53;;;;;;;12.69;84.31;101412.69;3588219;39;20118;-66
2022/09/18 00:28:44;;;;;;;8.13;2.60;;;;;;;12.70;83.74;101409.00;3589640;39;20410;-65
2022/09/18 00:31:15;;;;;;;5.50;2.35;;;;;;;12.70;83.51;101406.31;3590183;39;20064;-65
2022/09/18 00:33:42;;;;;;;4.90;2.28;;;;;;;12.72;83.58;101404.41;3588592;39;20059;-66
2022/09/18 00:36:14;;;;;;;7.40;2.45;;;;;;;12.71;83.41;101405.34;3590881;39;20056;-67
2022/09/18 00:38:41;;;;;;;7.53;2.15;;;;;;;12.71;83.52;101405.34;3588552;39;20070;-67
2022/09/18 00:41:29;;;;;;;6.53;2.28;;;;;;;12.70;83.80;101395.53;3589992;39;20078;-67
2022/09/18 00:44:35;;;;;;;4.35;2.10;;;;;;;12.70;83.29;101408.16;3587585;39;20091;-67
2022/09/18 00:47:28;;;;;;;5.97;2.35;;;;;;;12.70;83.56;101414.41;3590399;39;20060;-67
2022/09/18 00:50:17;;;;;;;5.80;2.80;;;;;;;12.69;83.52;101415.38;3589573;39;20108;-67
2022/09/18 00:52:55;;;;;;;6.32;2.78;;;;;;;12.71;83.71;101404.47;3588489;39;20273;-67
2022/09/18 00:55:30;;;;;;;5.55;2.30;;;;;;;12.48;84.05;101357.34;3590006;39;20409;-67
2022/09/18 00:58:00;;;;;;;6.00;2.65;;;;;;;12.70;83.23;101406.31;3589506;39;20064;-67
2022/09/18 01:00:28;;;;;;;5.05;2.60;;;;;;;12.65;83.48;101400.31;3589644;39;20052;-64
2022/09/18 01:02:55;;;;;;;6.05;2.92;;;;;;;12.70;83.76;101402.75;3589477;39;20068;-63
2022/09/18 01:06:12;;;;;;;5.57;2.38;;;;;;;12.57;83.76;101389.16;3589388;39;20044;-65
2022/09/18 01:09:09;;;;;;;8.98;3.15;;;;;;;12.64;83.52;101401.28;3587821;39;20096;-66
2022/09/18 01:12:30;;;;;;;6.53;3.22;;;;;;;12.65;84.05;101405.72;3587823;39;20088;-67
2022/09/18 01:15:29;;;;;;;5.35;2.40;;;;;;;12.66;84.37;101414.69;3589182;39;20059;-68
2022/09/18 01:18:31;;;;;;;4.43;2.65;;;;;;;12.67;84.16;101420.00;3589722;39;20153;-68
2022/09/18 01:21:18;;;;;;;5.85;2.67;;;;;;;12.69;83.87;101411.81;3589270;39;20116;-68
2022/09/18 01:24:27;;;;;;;4.95;2.22;;;;;;;12.73;83.46;101407.97;3581444;39;20055;-67
2022/09/18 01:27:03;;;;;;;7.10;2.80;;;;;;;12.74;83.73;101405.16;3586704;39;20159;-67
2022/09/18 01:29:52;;;;;;;7.15;2.33;;;;;;;12.78;83.81;101409.41;3588304;39;20055;-66
2022/09/18 01:32:32;;;;;;;7.25;2.58;;;;;;;12.82;83.87;101411.94;3588808;39;20092;-67
2022/09/18 01:35:09;;;;;;;4.43;2.13;;;;;;;12.87;83.46;101415.19;3593264;39;20051;-67
2022/09/18 01:37:52;;;;;;;8.15;2.60;;;;;;;12.84;83.58;101404.59;3589685;39;20370;-67
2022/09/18 01:40:32;;;;;;;6.95;2.45;;;;;;;12.84;83.60;101404.59;3588978;39;20052;-66
2022/09/18 01:43:07;;;;;;;6.63;2.53;;;;;;;12.85;83.48;101406.34;3591952;39;20058;-67
2022/09/18 01:45:45;;;;;;;5.80;2.50;;;;;;;12.84;83.57;101404.59;3591399;39;20298;-67
2022/09/18 01:48:23;;;;;;;5.18;2.88;;;;;;;12.80;83.27;101394.97;3591690;39;20052;-67
2022/09/18 01:51:00;;;;;;;5.10;2.40;;;;;;;12.67;83.94;101382.22;3593684;39;20067;-67
2022/09/18 01:53:47;;;;;;;6.70;2.83;;;;;;;12.72;84.32;101390.91;3591787;39;20160;-65
2022/09/18 01:56:27;;;;;;;7.43;2.97;;;;;;;12.66;84.05;101380.50;3592314;39;20052;-66
2022/09/18 01:59:00;;;;;;;7.57;3.33;;;;;;;12.71;84.37;101396.38;3592584;39;20060;-66
2022/09/18 02:01:34;;;;;;;7.57;3.30;;;;;;;12.70;84.33;101387.44;3589068;39;20058;-66
2022/09/18 02:04:10;;;;;;;9.10;3.10;;;;;;;12.38;83.95;101331.91;3590721;39;20457;-65
2022/09/18 02:06:53;;;;;;;5.88;3.45;;;;;;;12.64;83.84;101377.00;3589824;39;20095;-65
2022/09/18 02:09:19;;;;;;;7.87;3.23;;;;;;;12.65;84.58;101377.88;3587916;39;20380;-65
2022/09/18 02:11:51;;;;;;;5.47;3.47;;;;;;;12.65;85.03;101384.13;3587614;39;20107;-65
2022/09/18 02:14:43;;;;;;;9.35;3.40;;;;;;;12.63;84.57;101385.22;3587576;39;20071;-63
2022/09/18 02:17:22;;;;;;;8.35;3.42;;;;;;;12.65;85.10;101381.44;3588028;39;20080;-64
2022/09/18 02:19:58;;;;;;;8.75;3.40;;;;;;;12.65;84.78;101380.56;3588507;39;20054;-64
2022/09/18 02:22:31;;;;;;;9.43;3.60;;;;;;;12.67;84.96;101379.53;3588222;39;20049;-64
2022/09/18 02:25:04;;;;;;;6.35;3.05;;;;;;;12.67;85.28;101379.53;3589471;39;20105;-64
2022/09/18 02:27:35;;;;;;;7.82;3.53;;;;;;;12.68;84.92;101370.47;3589910;39;20052;-64
2022/09/18 02:30:06;;;;;;;9.30;3.53;;;;;;;12.67;84.83;101371.44;3588923;39;20048;-64
2022/09/18 02:32:37;;;;;;;11.90;3.92;;;;;;;12.68;85.48;101378.56;3589135;39;20382;-64
2022/09/18 02:35:06;;;;;;;8.00;3.88;;;;;;;12.68;85.17;101362.38;3590325;39;20047;-65
2022/09/18 02:38:00;;;;;;;5.38;2.90;;;;;;;12.64;84.80;101363.53;3590763;39;20087;-65
2022/09/18 02:41:05;;;;;;;5.30;2.97;;;;;;;12.67;85.29;101371.44;3589868;39;20060;-65
2022/09/18 02:44:09;;;;;;;8.18;2.90;;;;;;;12.64;84.40;101363.53;3588519;39;20064;-64
2022/09/18 02:47:03;;;;;;;8.48;2.42;;;;;;;12.66;84.94;101364.31;3570703;40;20066;-64
2022/09/18 02:50:14;;;;;;;5.63;2.78;;;;;;;12.67;84.71;101366.03;3573273;39;20067;-64
2022/09/18 02:53:03;;;;;;;6.35;2.55;;;;;;;12.67;84.87;101370.56;3589269;39;20052;-64
2022/09/18 02:56:11;;;;;;;9.32;3.00;;;;;;;12.64;84.73;101370.75;3581463;40;20088;-65
2022/09/18 02:58:54;;;;;;;7.40;3.53;;;;;;;12.67;85.45;101365.19;3588439;39;20055;-66
2022/09/18 03:01:26;;;;;;;9.25;2.58;;;;;;;12.68;85.72;101359.66;3588702;39;20060;-67
2022/09/18 03:03:51;;;;;;;7.85;2.85;;;;;;;12.70;85.23;101352.38;3589337;39;20071;-68
2022/09/18 03:06:17;;;;;;;9.45;4.28;;;;;;;12.71;85.88;101351.38;3589423;39;20429;-68
2022/09/18 03:08:43;;;;;;;6.18;2.33;;;;;;;12.72;85.12;101363.94;3588453;39;20508;-67
2022/09/18 03:11:09;;;;;;;7.78;2.35;;;;;;;12.76;85.55;101364.59;3588607;39;20058;-67
2022/09/18 03:13:35;;;;;;;7.65;2.80;;;;;;;12.79;85.46;101350.94;3590293;39;20060;-66
2022/09/18 03:16:00;;;;;;;4.72;2.13;;;;;;;12.80;85.65;101354.50;3587582;39;20039;-66
2022/09/18 03:18:26;;;;;;;5.05;2.08;;;;;;;12.82;85.60;101353.44;3587980;39;20063;-65
2022/09/18 03:20:52;;;;;;;7.15;2.08;;;;;;;12.82;85.17;101349.88;3588536;39;20113;-65
2022/09/18 03:23:17;;;;;;;4.57;2.00;;;;;;;12.85;85.07;101352.38;3587355;39;20128;-66
2022/09/18 03:25:43;;;;;;;5.13;2.10;;;;;;;12.85;85.12;101347.84;3588341;39;20068;-67
2022/09/18 03:28:09;;;;;;;9.82;2.47;;;;;;;12.86;85.02;101348.72;3589494;39;20068;-67
2022/09/18 03:30:35;;;;;;;5.10;1.67;;;;;;;12.87;84.82;101353.13;3590103;39;20462;-68
2022/09/18 03:33:00;;;;;;;7.78;2.13;;;;;;;12.89;84.53;101360.16;3588123;39;20116;-68
2022/09/18 03:35:26;;;;;;;8.77;2.30;;;;;;;12.89;84.87;101362.00;3587656;39;20395;-65
2022/09/18 03:37:53;;;;;;;6.75;1.80;;;;;;;12.89;84.64;101359.31;3588115;39;20731;-64
2022/09/18 03:40:19;;;;;;;8.07;2.05;;;;;;;12.85;84.71;101337.06;3587926;39;20055;-64
2022/09/18 03:42:45;;;;;;;6.70;1.80;;;;;;;12.84;85.06;101345.22;3589548;39;20055;-64
2022/09/18 03:45:12;;;;;;;6.93;1.70;;;;;;;12.82;85.19;101352.56;3587998;39;20059;-66
2022/09/18 03:47:39;;;;;;;5.03;1.70;;;;;;;12.79;85.03;101348.22;3588072;39;20272;-67
2022/09/18 03:50:05;;;;;;;6.22;1.48;;;;;;;12.78;84.86;101347.38;3589693;39;20067;-68
2022/09/18 03:52:33;;;;;;;4.07;1.50;;;;;;;12.54;85.03;101298.50;3590344;39;20059;-67
2022/09/18 03:54:58;;;;;;;5.35;1.48;;;;;;;12.73;85.28;101333.28;3587963;39;20067;-67
2022/09/18 03:57:24;;;;;;;3.83;1.50;;;;;;;12.73;84.82;101332.44;3587634;39;20075;-67
2022/09/18 03:59:50;;;;;;;5.50;1.48;;;;;;;12.70;84.99;101328.09;3589296;39;20066;-66
2022/09/18 04:02:15;;;;;;;7.38;1.50;;;;;;;12.71;85.14;101323.56;3587638;39;20063;-67
2022/09/18 04:04:41;;;;;;;6.57;1.42;;;;;;;12.70;84.62;101324.53;3589544;39;20048;-66
2022/09/18 04:07:07;;;;;;;6.05;1.15;;;;;;;12.70;84.45;101322.69;3587022;39;20059;-66
2022/09/18 04:09:33;;;;;;;5.78;1.17;;;;;;;12.69;84.29;101320.97;3586975;39;20110;-65
2022/09/18 04:11:59;;;;;;;5.15;1.40;;;;;;;12.68;84.09;101313.81;3590090;39;20178;-65
2022/09/18 04:14:25;;;;;;;7.35;1.40;;;;;;;12.68;84.34;101319.22;3591694;39;20095;-65
2022/09/18 04:16:50;;;;;;;5.88;1.00;;;;;;;12.69;83.91;101323.66;3580519;39;20052;-64
2022/09/18 04:19:16;;;;;;;2.53;1.00;;;;;;;12.67;84.11;101322.03;3587283;39;20068;-65
2022/09/18 04:21:42;;;;;;;5.47;1.33;;;;;;;12.65;84.37;101326.63;3589304;39;20297;-65
2022/09/18 04:24:08;;;;;;;5.40;1.30;;;;;;;12.64;84.75;101325.78;3590897;39;20052;-64
2022/09/18 04:26:34;;;;;;;3.65;1.15;;;;;;;12.65;84.52;101324.78;3586318;39;20403;-64
2022/09/18 04:29:00;;;;;;;2.38;1.08;;;;;;;12.66;84.43;101331.94;3588496;39;20382;-64
2022/09/18 04:31:25;;;;;;;3.00;1.20;;;;;;;12.67;84.53;101322.03;3587557;39;20051;-64
2022/09/18 04:33:51;;;;;;;4.47;1.25;;;;;;;12.68;84.26;101324.59;3587694;39;20064;-63
2022/09/18 04:36:16;;;;;;;6.95;1.65;;;;;;;12.66;84.05;101331.09;3591480;39;20055;-64
2022/09/18 04:38:42;;;;;;;4.60;1.20;;;;;;;12.69;85.18;101328.19;3586270;39;20069;-64
2022/09/18 04:41:08;;;;;;;5.28;1.15;;;;;;;12.69;84.45;101331.75;3588563;39;20056;-64
2022/09/18 04:43:33;;;;;;;5.57;1.45;;;;;;;12.68;83.91;101337.22;3588954;39;20427;-64
2022/09/18 04:45:59;;;;;;;8.57;1.58;;;;;;;12.66;84.28;101336.47;3589317;39;20117;-64
2022/09/18 04:48:25;;;;;;;5.78;1.27;;;;;;;12.64;84.33;101328.47;3588330;39;20384;-65
2022/09/18 04:50:50;;;;;;;7.97;1.83;;;;;;;12.47;83.84;101304.41;3588575;39;20393;-64
2022/09/18 04:53:17;;;;;;;3.95;1.30;;;;;;;12.61;83.73;101333.19;3586847;39;20141;-64
2022/09/18 04:55:44;;;;;;;4.88;1.35;;;;;;;12.59;84.24;101330.59;3588746;39;20418;-65
2022/09/18 04:58:11;;;;;;;8.10;1.40;;;;;;;12.60;84.20;101336.84;3581993;40;20046;-64
2022/09/18 05:00:37;;;;;;;3.78;1.30;;;;;;;12.59;83.82;101344.09;3586560;39;20048;-64
2022/09/18 05:03:04;;;;;;;5.72;1.63;;;;;;;12.60;83.96;101328.78;3585535;39;20306;-64
2022/09/18 05:05:30;;;;;;;5.53;1.35;;;;;;;12.59;84.03;101330.59;3587337;39;20082;-64
2022/09/18 05:08:01;;;;;;;5.78;1.50;;;;;;;12.53;83.60;101331.84;3587357;39;20098;-64
2022/09/18 05:10:27;;;;;;;5.65;1.35;;;;;;;12.46;84.37;101311.63;3588911;39;20089;-64
2022/09/18 05:12:54;;;;;;;4.05;1.42;;;;;;;12.55;84.61;101315.56;3589680;39;20060;-64
2022/09/18 05:15:21;;;;;;;4.78;1.58;;;;;;;12.45;83.86;101291.00;3589862;39;20146;-65
2022/09/18 05:17:47;;;;;;;5.40;1.60;;;;;;;12.53;84.23;101312.09;3589301;39;20048;-64
2022/09/18 05:20:13;;;;;;;5.38;1.27;;;;;;;12.54;84.05;101317.38;3592418;39;20047;-64
2022/09/18 05:22:45;;;;;;;5.45;1.58;;;;;;;12.51;84.34;101320.28;3589279;39;20047;-64
2022/09/18 05:25:11;;;;;;;8.77;1.65;;;;;;;12.59;84.16;101336.00;3583078;39;20125;-64
2022/09/18 05:27:37;;;;;;;7.47;1.55;;;;;;;12.59;83.95;101333.31;3590781;39;20060;-64
2022/09/18 05:30:03;;;;;;;6.82;1.70;;;;;;;12.59;83.89;101314.44;3580090;39;20156;-66
2022/09/18 05:32:28;;;;;;;5.35;1.55;;;;;;;12.59;84.37;101337.81;3586349;39;20064;-67
2022/09/18 05:34:54;;;;;;;5.80;1.50;;;;;;;12.55;84.42;101340.69;3588713;39;20097;-66
2022/09/18 05:37:20;;;;;;;7.28;1.40;;;;;;;12.53;84.25;101344.47;3588186;39;20063;-68
2022/09/18 05:39:45;;;;;;;5.55;1.38;;;;;;;12.53;84.71;101342.63;3588707;39;20490;-67
2022/09/18 05:42:11;;;;;;;5.38;1.80;;;;;;;12.53;84.38;101342.63;3585754;39;20368;-67
2022/09/18 05:44:36;;;;;;;8.15;1.40;;;;;;;12.55;84.82;101346.06;3589457;39;20060;-66
2022/09/18 05:47:02;;;;;;;6.43;1.65;;;;;;;12.59;85.11;101336.00;3591545;39;20060;-65
2022/09/18 05:49:27;;;;;;;8.07;2.08;;;;;;;12.62;84.68;101340.31;3588873;39;20095;-64
2022/09/18 05:51:53;;;;;;;4.88;1.50;;;;;;;12.63;85.15;101333.97;3589425;39;20051;-64
2022/09/18 05:54:19;;;;;;;8.45;1.85;;;;;;;12.65;84.88;101323.94;3589486;39;20056;-63
2022/09/18 05:56:45;;;;;;;4.35;1.45;;;;;;;12.44;85.09;101296.50;3590438;39;20051;-64
2022/09/18 05:59:12;;;;;;;8.20;2.47;;;;;;;12.67;84.60;101335.50;3590851;39;20047;-63
2022/09/18 06:01:37;;;;;;;4.97;1.92;;;;;;;12.69;85.15;101329.06;3591800;39;20053;-64
2022/09/18 06:04:03;;;;;;;7.55;1.88;;;;;;;12.72;85.08;101330.69;3590685;39;20060;-63
2022/09/18 06:06:29;;;;;;;9.40;2.38;;;;;;;12.76;84.70;101332.22;3590261;39;20368;-63
2022/09/18 06:08:55;;;;;;;6.07;1.85;;;;;;;12.77;84.67;101329.44;3591905;39;20063;-64
2022/09/18 06:11:20;;;;;;;7.13;1.88;;;;;;;12.82;84.99;101331.00;3590362;39;20056;-63
2022/09/18 06:13:51;;;;;;;10.75;1.80;;;;;;;12.83;84.23;101324.63;3590975;39;20048;-63
2022/09/18 06:16:18;;;;;;;4.40;1.60;;;;;;;12.81;84.40;101318.44;3589738;39;20072;-63
2022/09/18 06:18:45;;;;;;;7.75;1.92;;;;;;;12.85;84.94;101323.56;3592385;39;20070;-64
2022/09/18 06:21:13;;;;;;;7.93;1.90;;;;;;;12.89;84.49;101325.09;3592049;39;20059;-62
2022/09/18 06:23:39;;;;;;;6.80;1.80;;;;;;;12.91;84.48;101320.47;3592112;39;20048;-63
2022/09/18 06:26:06;;;;;;;7.85;2.47;;;;;;;13.00;84.57;101324.41;3589161;39;20323;-63
2022/09/18 06:28:35;;;;;;;5.78;2.17;;;;;;;13.09;85.27;101321.09;3592847;39;20072;-64
2022/09/18 06:31:03;;;;;;;8.23;2.20;;;;;;;13.17;84.18;101326.91;3590393;39;20198;-63
2022/09/18 06:33:29;;;;;;;7.25;2.13;;;;;;;13.19;83.84;101322.28;3591512;39;20099;-63
2022/09/18 06:35:55;;;;;;;10.23;2.53;;;;;;;13.20;84.21;101315.91;3595624;39;20055;-62
2022/09/18 06:38:20;;;;;;;5.10;1.77;;;;;;;13.17;83.96;101290.94;3591274;39;20088;-63
2022/09/18 06:40:52;;;;;;;6.43;2.08;;;;;;;13.29;83.35;101308.19;3593461;39;20051;-62
2022/09/18 06:43:19;;;;;;;6.90;1.77;;;;;;;13.31;83.41;101311.66;3591255;39;20137;-63
2022/09/18 06:45:52;;;;;;;4.55;1.70;;;;;;;13.30;83.35;101304.53;3589031;39;20125;-62
2022/09/18 06:48:17;;;;;;;9.32;2.05;;;;;;;13.29;83.15;101314.47;3589418;39;20094;-63
2022/09/18 06:50:43;;;;;;;7.15;1.67;;;;;;;13.35;83.07;101314.06;3590690;39;20118;-63
2022/09/18 06:53:08;;;;;;;6.20;1.33;;;;;;;13.37;83.16;101311.25;3590222;39;20060;-63
2022/09/18 06:55:34;;;;;;;8.88;2.92;;;;;;;13.39;82.68;101306.63;3590856;39;20051;-63
2022/09/18 06:58:00;;;;;;;8.25;2.38;;;;;;;13.44;82.78;101318.84;3593001;39;20112;-62
2022/09/18 07:00:27;;;;;;;9.20;2.25;;;;;;;13.29;83.07;101278.47;3590514;39;20055;-63
2022/09/18 07:03:03;;;;;;;5.75;1.90;;;;;;;13.53;82.83;101316.50;3594047;39;20120;-63
2022/09/18 07:05:32;;;;;;;3.95;1.83;;;;;;;13.55;82.75;101311.88;3591372;39;20052;-62
2022/09/18 07:07:59;;;;;;;5.55;1.50;;;;;;;13.56;82.55;101311.75;3591557;39;20149;-62
2022/09/18 07:10:25;;;;;;;4.18;1.85;;;;;;;13.60;83.12;101313.28;3582917;40;20060;-64
2022/09/18 07:12:58;;;;;;;10.32;3.58;;;;;;;13.65;82.99;101311.16;3595262;39;20088;-64
2022/09/18 07:15:25;;;;;;;;;;;;;;;13.47;82.50;101271.88;3591425;39;20346;-63
2022/09/18 07:17:54;;;;;;;7.70;2.13;;;;;;;13.68;83.17;101308.25;3586545;39;19932;-62
2022/09/18 07:20:19;;;;;;;7.22;1.90;;;;;;;13.74;82.81;101308.81;3588001;39;20052;-63
2022/09/18 07:22:59;;;;;;;4.60;1.10;;;;;;;13.77;82.20;101308.63;3587848;39;20059;-63
2022/09/18 07:25:29;;;;;;;8.23;1.60;;;;;;;13.80;81.94;101303.00;3584302;39;20118;-62
2022/09/18 07:28:01;;;;;;;5.22;1.50;;;;;;;13.83;82.11;101298.25;3590650;39;20088;-63
2022/09/18 07:30:26;;;;;;;9.00;1.77;;;;;;;13.87;82.13;101299.75;3588471;39;20121;-65
2022/09/18 07:32:52;;;;;;;7.05;1.70;;;;;;;13.90;81.93;101290.59;3588878;39;20047;-63
2022/09/18 07:35:17;;;;;;;5.75;1.40;;;;;;;13.91;81.71;101286.91;3586124;39;20134;-63
2022/09/18 07:37:43;;;;;;;4.53;1.75;;;;;;;13.99;81.41;101281.84;3588974;39;20422;-63
2022/09/18 07:40:11;;;;;;;9.27;1.70;;;;;;;14.03;81.35;101288.75;3586513;39;20047;-63
2022/09/18 07:42:37;;;;;;;7.60;1.80;;;;;;;14.07;81.71;101292.13;3589195;39;20056;-63
2022/09/18 07:45:04;;;;;;;7.75;1.60;;;;;;;14.04;81.21;101278.81;3590736;39;20393;-63
2022/09/18 07:47:30;;;;;;;7.78;1.58;;;;;;;13.81;80.94;101245.28;3589269;39;20055;-63
2022/09/18 07:49:55;;;;;;;4.25;2.38;;;;;;;14.16;81.17;101296.91;3587928;39;20063;-62
2022/09/18 07:52:21;;;;;;;6.40;1.70;;;;;;;14.18;81.21;101297.66;3589471;39;20128;-63
2022/09/18 07:54:46;;;;;;;3.83;1.58;;;;;;;14.24;81.17;101291.84;3588399;39;20059;-63
2022/09/18 07:57:12;;;;;;;4.97;1.40;;;;;;;14.39;81.28;101287.16;3586753;39;20066;-63
2022/09/18 07:59:38;;;;;;;5.72;1.65;;;;;;;14.48;80.94;101277.53;3589007;39;20071;-63
2022/09/18 08:02:04;;;;;;;6.05;1.60;;;;;;;14.72;81.41;101292.06;3587647;39;20071;-63
2022/09/18 08:04:30;;;;;;;4.15;1.67;;;;;;;14.81;79.57;101282.41;3589297;39;20092;-63
2022/09/18 08:07:02;;;;;;;4.18;1.10;;;;;;;14.93;79.29;101288.75;3591924;39;20055;-63
2022/09/18 08:09:28;;;;;;;2.17;1.13;;;;;;;15.01;79.12;101291.78;3588622;39;20055;-64
2022/09/18 08:11:54;;;;;;;4.25;1.33;;;;;;;15.00;78.27;101285.53;3590287;39;20058;-63
2022/09/18 08:14:20;;;;;;;6.97;1.67;;;;;;;15.05;78.15;101285.16;3588302;39;20052;-63
2022/09/18 08:16:46;;;;;;;2.78;1.17;;;;;;;15.13;78.16;101279.19;3589227;39;20062;-63
2022/09/18 08:19:12;;;;;;;4.75;1.50;;;;;;;15.05;77.67;101261.66;3587460;39;20510;-63
2022/09/18 08:21:38;;;;;;;5.78;1.20;;;;;;;15.17;76.99;101291.53;3589110;39;20079;-63
2022/09/18 08:24:03;;;;;;;5.45;1.20;;;;;;;15.11;76.32;101297.41;3589155;39;20095;-63
2022/09/18 08:26:30;;;;;;;4.43;1.17;;;;;;;15.03;76.68;101293.41;3588903;39;20143;-62
2022/09/18 08:28:55;;;;;;;5.65;1.42;;;;;;;14.98;77.32;101298.28;3590484;39;20057;-62
2022/09/18 08:31:21;;;;;;;3.90;1.23;;;;;;;14.88;77.06;101308.06;3589532;39;20068;-64
2022/09/18 08:33:46;;;;;;;7.18;1.67;;;;;;;14.80;78.10;101305.03;3586358;39;20233;-63
2022/09/18 08:36:12;;;;;;;4.25;1.45;;;;;;;14.70;79.24;101309.38;3587729;39;20068;-60
2022/09/18 08:38:38;;;;;;;3.50;1.10;;;;;;;14.60;79.81;101307.31;3586851;39;20137;-63
2022/09/18 08:41:41;;;;;;;5.90;1.60;;;;;;;14.46;79.69;101307.41;3588629;39;20409;-62
2022/09/18 08:44:16;;;;;;;4.65;1.17;;;;;;;14.35;80.26;101307.28;3588026;39;20064;-64
2022/09/18 08:47:14;;;;;;;2.83;1.45;;;;;;;14.30;80.87;101313.03;3590294;39;20367;-62
2022/09/18 08:49:52;;;;;;;5.95;1.60;;;;;;;14.27;81.13;101306.94;3588310;39;20056;-62
2022/09/18 08:52:31;;;;;;;4.88;1.67;;;;;;;14.28;81.22;101293.34;3585295;39;20068;-63
2022/09/18 08:55:14;;;;;;;9.60;2.33;;;;;;;14.31;81.08;101308.50;3587586;39;20099;-62
2022/09/18 08:57:49;;;;;;;2.25;1.27;;;;;;;14.36;81.06;101300.91;3588376;39;20568;-62
2022/09/18 09:00:23;;;;;;;3.85;1.50;;;;;;;14.36;80.22;101300.91;3586780;39;20907;-61
2022/09/18 09:02:57;;;;;;;3.95;1.38;;;;;;;14.39;80.44;101311.50;3586892;39;20048;-62
2022/09/18 09:05:34;;;;;;;5.55;1.58;;;;;;;14.37;80.39;101308.94;3590960;39;20056;-63
2022/09/18 09:08:20;;;;;;;6.15;1.73;;;;;;;14.38;80.12;101307.09;3585292;39;20402;-65
2022/09/18 09:11:26;;;;;;;5.20;1.73;;;;;;;14.42;80.30;101305.03;3586999;39;20063;-64
2022/09/18 09:14:36;;;;;;;3.88;1.60;;;;;;;14.38;80.09;101307.94;3588740;39;20064;-62
2022/09/18 09:17:19;;;;;;;2.72;1.50;;;;;;;14.35;80.16;101307.28;3585646;39;20626;-62
2022/09/18 09:20:44;;;;;;;6.82;1.95;;;;;;;14.33;80.30;101306.53;3586110;39;20052;-63
2022/09/18 09:23:50;;;;;;;5.20;2.00;;;;;;;14.32;80.35;101294.00;3587543;39;20047;-62
2022/09/18 09:26:22;;;;;;;6.20;2.00;;;;;;;14.44;81.07;101298.53;3584470;39;20076;-65
2022/09/18 09:29:12;;;;;;;4.00;1.80;;;;;;;14.42;80.30;101303.19;3586610;39;20058;-63
2022/09/18 09:31:49;;;;;;;3.47;1.75;;;;;;;14.09;80.25;101261.31;3588845;39;20055;-63
2022/09/18 09:34:26;;;;;;;3.55;1.63;;;;;;;14.41;80.39;101309.56;3586450;39;20064;-62
2022/09/18 09:36:59;;;;;;;5.70;1.80;;;;;;;14.41;80.81;101306.88;3586907;39;20056;-62
2022/09/18 09:40:01;;;;;;;6.03;2.28;;;;;;;14.36;81.21;101299.06;3588120;39;20062;-62
2022/09/18 09:43:00;;;;;;;4.68;2.45;;;;;;;14.34;81.63;101303.72;3587795;39;20060;-63
2022/09/18 09:45:45;;;;;;;2.47;1.90;;;;;;;14.26;82.25;101308.78;3589119;39;20068;-62
2022/09/18 09:48:28;;;;;;;7.43;2.00;;;;;;;14.27;83.12;101313.25;3590596;39;20386;-63
2022/09/18 09:51:25;;;;;;;6.07;2.33;;;;;;;14.32;84.43;101313.78;3586435;39;20064;-62
2022/09/18 09:53:54;;;;;;;5.63;2.42;;;;;;;14.38;83.50;101316.06;3575169;39;20410;-62
2022/09/18 09:57:07;;;;;;;5.22;2.20;;;;;;;14.44;83.92;101303.09;3592100;39;20048;-62
2022/09/18 10:00:11;;;;;;;6.57;2.30;;;;;;;14.53;83.87;101295.22;3587639;39;20342;-62
2022/09/18 10:03:01;;;;;;;4.35;2.30;;;;;;;14.58;83.76;101279.50;3587506;39;20132;-63
2022/09/18 10:05:42;;;;;;;3.47;2.03;;;;;;;14.64;83.25;101272.78;3589009;39;20068;-63
2022/09/18 10:08:18;;;;;;;2.63;2.13;;;;;;;14.73;83.09;101274.84;3588187;39;20051;-62
2022/09/18 10:10:55;;;;;;;4.20;1.98;;;;;;;14.86;83.42;101274.81;3590491;39;20340;-63
2022/09/18 10:13:30;;;;;;;5.88;1.90;;;;;;;14.92;82.77;101271.66;3591690;39;20059;-62
2022/09/18 10:16:21;;;;;;;7.70;2.28;;;;;;;15.00;82.74;101269.28;3592932;39;20106;-62
2022/09/18 10:18:48;;;;;;;6.25;1.95;;;;;;;15.02;81.91;101278.13;3590592;39;20109;-63
2022/09/18 10:21:19;;;;;;;3.33;1.50;;;;;;;15.08;81.83;101272.25;3590200;39;20103;-62
2022/09/18 10:24:32;;;;;;;4.05;1.90;;;;;;;15.21;82.42;101279.50;3591894;39;20052;-63
2022/09/18 10:27:12;;;;;;;4.07;1.85;;;;;;;15.28;80.82;101272.63;3594389;39;20059;-63
2022/09/18 10:29:39;;;;;;;3.78;1.90;;;;;;;15.31;80.17;101277.81;3591264;39;20124;-62
2022/09/18 10:32:05;;;;;;;3.78;1.50;;;;;;;15.27;80.86;101266.34;3583709;39;20152;-63
2022/09/18 10:34:49;;;;;;;4.90;1.30;;;;;;;15.48;80.10;101274.72;3589351;39;20306;-63
2022/09/18 10:37:27;;;;;;;3.95;1.80;;;;;;;15.54;79.30;101276.97;3589271;39;20121;-63
2022/09/18 10:40:00;;;;;;;3.67;1.00;;;;;;;15.58;78.07;101282.16;3588443;39;20133;-63
2022/09/18 10:42:30;;;;;;;2.72;1.00;;;;;;;15.54;76.47;101276.97;3589807;39;20048;-64
2022/09/18 10:45:04;;;;;;;2.78;1.00;;;;;;;15.57;75.77;101275.84;3588321;39;20070;-64
2022/09/18 10:47:35;;;;;;;5.47;1.10;;;;;;;15.61;75.87;101268.38;3588585;39;20095;-63
2022/09/18 10:50:10;;;;;;;3.28;0.80;;;;;;;15.62;76.20;101272.81;3590685;39;20495;-62
2022/09/18 10:52:42;;;;;;;5.15;1.20;;;;;;;15.72;77.01;101266.59;3589727;39;20104;-63
2022/09/18 10:55:11;;;;;;;2.83;1.38;;;;;;;15.84;77.63;101264.78;3591341;39;20051;-63
2022/09/18 10:57:46;;;;;;;6.45;1.40;;;;;;;15.85;78.17;101255.66;3580847;40;20266;-63
2022/09/18 11:00:12;;;;;;;3.97;1.65;;;;;;;15.85;78.57;101260.25;3590649;39;20383;-62
2022/09/18 11:02:45;;;;;;;5.25;1.60;;;;;;;15.83;77.08;101257.66;3591793;39;20371;-62
2022/09/18 11:05:22;;;;;;;3.47;1.30;;;;;;;15.86;76.06;101253.81;3574974;39;20064;-64
2022/09/18 11:07:52;;;;;;;5.07;1.33;;;;;;;15.85;76.52;101235.84;3589089;39;20270;-63
2022/09/18 11:10:23;;;;;;;3.40;1.42;;;;;;;15.83;75.45;101254.09;3586692;39;20056;-64
2022/09/18 11:12:57;;;;;;;2.75;1.48;;;;;;;15.77;75.55;101250.84;3588598;39;20394;-63
2022/09/18 11:15:34;;;;;;;7.80;1.48;;;;;;;15.70;75.80;101262.31;3587938;39;20100;-64
2022/09/18 11:18:06;;;;;;;3.95;1.50;;;;;;;15.58;76.33;101265.91;3589291;39;20051;-63
2022/09/18 11:20:46;;;;;;;4.10;1.55;;;;;;;15.39;76.61;101272.72;3589983;39;20044;-62
2022/09/18 11:23:17;;;;;;;8.40;1.40;;;;;;;15.26;77.35;101280.03;3589308;39;20332;-63
2022/09/18 11:25:45;;;;;;;2.92;1.40;;;;;;;15.02;77.67;101261.03;3591049;39;20099;-62
2022/09/18 11:28:29;;;;;;;4.40;1.60;;;;;;;14.91;79.48;101275.38;3589873;39;20364;-61
2022/09/18 11:31:25;;;;;;;6.15;2.95;;;;;;;14.84;80.63;101271.34;3589786;39;20133;-62
2022/09/18 11:33:57;;;;;;;3.97;1.40;;;;;;;14.72;80.48;101296.63;3589355;39;20366;-62
2022/09/18 11:36:29;;;;;;;6.20;1.60;;;;;;;14.61;81.32;101292.81;3591793;39;20401;-62
2022/09/18 11:38:58;;;;;;;4.30;1.30;;;;;;;14.55;81.27;101290.53;3588288;39;20064;-62
2022/09/18 11:41:47;;;;;;;4.80;1.10;;;;;;;14.44;79.75;101303.09;3587287;39;20067;-62
2022/09/18 11:44:31;;;;;;;2.78;0.73;;;;;;;14.21;79.72;101281.22;3588907;39;20054;-62
2022/09/18 11:47:29;;;;;;;3.47;0.80;;;;;;;14.22;79.30;101295.59;3590591;39;20051;-63
2022/09/18 11:50:10;;;;;;;2.22;0.93;;;;;;;14.13;80.25;101303.38;3589190;39;20050;-61
2022/09/18 11:52:42;;;;;;;4.38;1.10;;;;;;;14.10;81.22;101300.88;3589394;39;20092;-62
2022/09/18 11:55:12;;;;;;;2.03;0.82;;;;;;;14.12;82.39;101307.06;3589520;39;20351;-62